createdAt,value
2023-05-11T00:00:41.158Z,96283.16
2023-05-11T00:03:08.193Z,96290.91
2023-05-11T00:05:35.258Z,96288.50
2023-05-11T00:08:02.104Z,96291.59
2023-05-11T00:10:29.731Z,96288.81
2023-05-11T00:12:57.232Z,96285.50
2023-05-11T00:15:24.192Z,96285.56
2023-05-11T00:17:51.218Z,96276.59
2023-05-11T00:20:18.702Z,96275.84
2023-05-11T00:22:45.863Z,96271.47
2023-05-11T00:25:12.873Z,96273.78
2023-05-11T00:27:41.103Z,96275.63
2023-05-11T00:30:10.089Z,96270.41
2023-05-11T00:32:37.022Z,96270.94
2023-05-11T00:35:04.174Z,96272.91
2023-05-11T00:37:30.965Z,96263.22
2023-05-11T00:39:57.815Z,96270.69
2023-05-11T00:42:24.629Z,96266.91
2023-05-11T00:44:51.556Z,96264.38
2023-05-11T00:47:18.551Z,96261.50
2023-05-11T00:49:46.306Z,96258.38
2023-05-11T00:52:13.360Z,96263.53
2023-05-11T00:54:41.749Z,96247.94
2023-05-11T00:57:08.685Z,96252.66
2023-05-11T00:59:35.971Z,96258.25
2023-05-11T01:02:04.178Z,96253.94
2023-05-11T01:04:31.963Z,96245.50
2023-05-11T01:07:19.688Z,96246.09
2023-05-11T01:10:20.587Z,96244.50
2023-05-11T01:12:55.924Z,96247.50
2023-05-11T01:15:44.353Z,96252.19
2023-05-11T01:18:36.485Z,96254.94
2023-05-11T01:21:05.124Z,96240.94
2023-05-11T01:24:26.522Z,96244.19
2023-05-11T01:27:20.882Z,96242.97
2023-05-11T01:29:56.855Z,96243.72
2023-05-11T01:32:26.718Z,96236.88
2023-05-11T01:35:06.664Z,96233.66
2023-05-11T01:37:35.012Z,96240.16
2023-05-11T01:40:10.766Z,96236.84
2023-05-11T01:42:45.075Z,96243.44
2023-05-11T01:45:13.866Z,96241.34
2023-05-11T01:47:43.897Z,96239.66
2023-05-11T01:50:12.221Z,96241.19
2023-05-11T01:52:41.292Z,96244.19
2023-05-11T01:55:10.586Z,96246.00
2023-05-11T01:57:39.060Z,96240.78
2023-05-11T02:00:08.559Z,96233.81
2023-05-11T02:02:36.672Z,96238.94
2023-05-11T02:05:05.306Z,96237.06
2023-05-11T02:07:34.329Z,96235.38
2023-05-11T02:10:01.931Z,96240.25
2023-05-11T02:12:29.887Z,96239.97
2023-05-11T02:14:57.863Z,96243.22
2023-05-11T02:17:25.567Z,96227.47
2023-05-11T02:19:53.593Z,96232.06
2023-05-11T02:22:23.699Z,96235.75
2023-05-11T02:24:50.641Z,96241.19
2023-05-11T02:27:17.740Z,96240.31
2023-05-11T02:29:44.742Z,96233.69
2023-05-11T02:32:17.697Z,96229.00
2023-05-11T02:34:54.516Z,96231.44
2023-05-11T02:37:24.520Z,96228.75
2023-05-11T02:40:02.965Z,96234.94
2023-05-11T02:42:36.428Z,96229.16
2023-05-11T02:45:08.562Z,96223.03
2023-05-11T02:47:53.279Z,96228.97
2023-05-11T02:50:24.241Z,96223.78
2023-05-11T02:52:55.664Z,96217.47
2023-05-11T02:55:23.762Z,96214.53
2023-05-11T02:57:51.077Z,96223.81
2023-05-11T03:00:18.493Z,96222.09
2023-05-11T03:02:45.651Z,96220.94
2023-05-11T03:05:12.501Z,96224.13
2023-05-11T03:07:39.495Z,96218.06
2023-05-11T03:10:08.348Z,96211.13
2023-05-11T03:12:35.392Z,96214.13
2023-05-11T03:15:04.044Z,96225.00
2023-05-11T03:17:31.636Z,96219.06
2023-05-11T03:20:00.055Z,96215.69
2023-05-11T03:22:27.776Z,96219.47
2023-05-11T03:24:54.663Z,96221.44
2023-05-11T03:27:22.232Z,96213.34
2023-05-11T03:29:50.136Z,96217.84
2023-05-11T03:32:17.213Z,96215.69
2023-05-11T03:34:44.229Z,96205.88
2023-05-11T03:37:12.939Z,96206.66
2023-05-11T03:39:44.037Z,96207.16
2023-05-11T03:42:14.085Z,96209.91
2023-05-11T03:44:44.514Z,96211.81
2023-05-11T03:47:13.128Z,96210.97
2023-05-11T03:49:41.301Z,96209.56
2023-05-11T03:52:08.779Z,96209.69
2023-05-11T03:54:36.344Z,96207.28
2023-05-11T03:57:03.238Z,96208.59
2023-05-11T03:59:30.088Z,96192.81
2023-05-11T04:01:58.720Z,96201.47
2023-05-11T04:04:32.852Z,96200.69
2023-05-11T04:06:59.958Z,96205.53
2023-05-11T04:09:27.032Z,96196.00
2023-05-11T04:11:53.865Z,96189.66
2023-05-11T04:14:20.864Z,96189.47
2023-05-11T04:16:47.741Z,96183.41
2023-05-11T04:19:14.706Z,96196.06
2023-05-11T04:21:41.539Z,96184.25
2023-05-11T04:24:08.589Z,96186.81
2023-05-11T04:26:35.422Z,96189.56
2023-05-11T04:29:02.259Z,96197.22
2023-05-11T04:31:30.361Z,96192.53
2023-05-11T04:33:57.289Z,96195.28
2023-05-11T04:36:24.093Z,96196.03
2023-05-11T04:38:51.106Z,96200.78
2023-05-11T04:41:17.891Z,96201.31
2023-05-11T04:43:44.933Z,96191.06
2023-05-11T04:46:11.809Z,96202.09
2023-05-11T04:48:38.839Z,96191.50
2023-05-11T04:51:06.337Z,96198.41
2023-05-11T04:53:33.287Z,96198.47
2023-05-11T04:56:00.179Z,96202.50
2023-05-11T04:58:30.206Z,96208.97
2023-05-11T05:00:57.086Z,96195.44
2023-05-11T05:03:24.014Z,96192.84
2023-05-11T05:05:51.573Z,96200.63
2023-05-11T05:08:18.722Z,96197.59
2023-05-11T05:10:47.460Z,96205.19
2023-05-11T05:13:16.769Z,96210.84
2023-05-11T05:15:44.092Z,96200.44
2023-05-11T05:18:11.093Z,96208.22
2023-05-11T05:20:38.046Z,96196.59
2023-05-11T05:23:05.673Z,96211.22
2023-05-11T05:25:32.553Z,96209.63
2023-05-11T05:27:59.349Z,96213.47
2023-05-11T05:30:26.296Z,96212.78
2023-05-11T05:32:53.196Z,96212.03
2023-05-11T05:35:20.066Z,96215.59
2023-05-11T05:37:46.931Z,96220.28
2023-05-11T05:40:13.833Z,96211.50
2023-05-11T05:42:40.786Z,96215.53
2023-05-11T05:45:08.490Z,96220.56
2023-05-11T05:47:35.450Z,96221.81
2023-05-11T05:50:02.313Z,96217.00
2023-05-11T05:52:29.179Z,96217.09
2023-05-11T05:54:55.978Z,96211.06
2023-05-11T05:57:22.801Z,96216.44
2023-05-11T05:59:49.651Z,96221.13
2023-05-11T06:02:16.788Z,96219.84
2023-05-11T06:04:43.849Z,96224.06
2023-05-11T06:07:10.760Z,96221.44
2023-05-11T06:09:39.111Z,96223.66
2023-05-11T06:12:06.610Z,96225.16
2023-05-11T06:14:34.519Z,96226.84
2023-05-11T06:17:01.331Z,96222.31
2023-05-11T06:19:28.138Z,96225.81
2023-05-11T06:21:54.980Z,96230.81
2023-05-11T06:24:22.097Z,96222.31
2023-05-11T06:26:48.899Z,96223.34
2023-05-11T06:29:15.707Z,96226.84
2023-05-11T06:31:42.657Z,96234.25
2023-05-11T06:34:09.587Z,96234.84
2023-05-11T06:36:36.402Z,96236.56
2023-05-11T06:39:03.572Z,96231.16
2023-05-11T06:41:30.373Z,96225.06
2023-05-11T06:43:57.225Z,96233.25
2023-05-11T06:46:24.103Z,96227.81
2023-05-11T06:48:50.987Z,96235.06
2023-05-11T06:51:17.967Z,96223.28
2023-05-11T06:53:44.926Z,96230.84
2023-05-11T06:56:11.753Z,96229.53
2023-05-11T06:58:38.613Z,96222.81
2023-05-11T07:01:07.789Z,96224.06
2023-05-11T07:03:35.325Z,96221.31
2023-05-11T07:06:02.693Z,96229.22
2023-05-11T07:08:29.614Z,96228.63
2023-05-11T07:10:56.623Z,96220.59
2023-05-11T07:13:23.533Z,96233.88
2023-05-11T07:15:50.396Z,96214.53
2023-05-11T07:18:17.372Z,96223.50
2023-05-11T07:20:46.824Z,96219.84
2023-05-11T07:23:13.666Z,96225.03
2023-05-11T07:25:40.482Z,96232.56
2023-05-11T07:28:07.316Z,96225.78
2023-05-11T07:30:34.204Z,96235.47
2023-05-11T07:33:01.230Z,96226.50
2023-05-11T07:35:28.116Z,96225.75
2023-05-11T07:37:54.960Z,96219.78
2023-05-11T07:40:21.969Z,96232.38
2023-05-11T07:42:48.913Z,96226.88
2023-05-11T07:45:15.875Z,96227.72
2023-05-11T07:47:42.816Z,96234.81
2023-05-11T07:50:10.034Z,96236.41
2023-05-11T07:52:36.865Z,96225.03
2023-05-11T07:55:03.999Z,96226.47
2023-05-11T07:57:31.077Z,96223.03
2023-05-11T07:59:57.930Z,96233.81
2023-05-11T08:02:25.239Z,96229.25
2023-05-11T08:04:52.765Z,96234.09
2023-05-11T08:07:19.618Z,96230.38
2023-05-11T08:09:46.452Z,96234.72
2023-05-11T08:12:13.348Z,96228.47
2023-05-11T08:14:40.277Z,96228.91
2023-05-11T08:17:07.137Z,96233.63
2023-05-11T08:19:34.039Z,96233.44
2023-05-11T08:22:01.609Z,96238.63
2023-05-11T08:24:28.466Z,96236.16
2023-05-11T08:26:55.340Z,96234.09
2023-05-11T08:29:22.167Z,96231.47
2023-05-11T08:31:50.130Z,96234.66
2023-05-11T08:34:20.068Z,96236.56
2023-05-11T08:36:47.712Z,96230.88
2023-05-11T08:39:18.994Z,96231.31
2023-05-11T08:41:59.497Z,96232.97
2023-05-11T08:44:27.344Z,96232.72
2023-05-11T08:47:08.559Z,96245.81
2023-05-11T08:49:41.168Z,96235.41
2023-05-11T08:52:09.504Z,96234.50
2023-05-11T08:54:36.351Z,96240.78
2023-05-11T08:57:04.394Z,96235.25
2023-05-11T08:59:34.061Z,96230.16
2023-05-11T09:02:02.280Z,96230.63
2023-05-11T09:04:29.582Z,96230.88
2023-05-11T09:06:57.635Z,96229.66
2023-05-11T09:09:24.498Z,96224.34
2023-05-11T09:11:54.112Z,96225.63
2023-05-11T09:14:27.176Z,96227.66
2023-05-11T09:16:54.600Z,96233.00
2023-05-11T09:19:21.880Z,96232.22
2023-05-11T09:21:48.744Z,96228.53
2023-05-11T09:24:15.661Z,96227.47
2023-05-11T09:26:42.581Z,96231.28
2023-05-11T09:29:09.550Z,96229.25
2023-05-11T09:31:46.947Z,96238.53
2023-05-11T09:34:21.180Z,96223.97
2023-05-11T09:36:51.698Z,96237.28
2023-05-11T09:39:36.881Z,96238.72
2023-05-11T09:42:23.525Z,96229.97
2023-05-11T09:44:50.437Z,96230.28
2023-05-11T09:47:19.800Z,96228.84
2023-05-11T09:49:47.886Z,96229.53
2023-05-11T09:52:17.120Z,96226.78
2023-05-11T09:54:53.057Z,96224.47
2023-05-11T09:57:30.574Z,96229.88
2023-05-11T09:59:59.798Z,96219.16
2023-05-11T10:02:32.175Z,96220.66
2023-05-11T10:05:01.463Z,96218.13
2023-05-11T10:07:36.021Z,96216.53
2023-05-11T10:10:11.641Z,96217.56
2023-05-11T10:12:40.329Z,96224.94
2023-05-11T10:15:11.296Z,96218.72
2023-05-11T10:17:38.438Z,96221.25
2023-05-11T10:20:06.827Z,96232.78
2023-05-11T10:22:33.999Z,96230.06
2023-05-11T10:25:03.080Z,96228.53
2023-05-11T10:27:31.381Z,96222.00
2023-05-11T10:29:59.337Z,96223.88
2023-05-11T10:32:27.072Z,96216.09
2023-05-11T10:34:54.468Z,96221.03
2023-05-11T10:37:22.435Z,96228.03
2023-05-11T10:39:50.656Z,96211.66
2023-05-11T10:42:24.140Z,96215.00
2023-05-11T10:45:37.115Z,96216.78
2023-05-11T10:48:37.991Z,96213.19
2023-05-11T10:51:40.606Z,96212.38
2023-05-11T10:54:32.039Z,96209.78
2023-05-11T10:57:11.308Z,96212.25
2023-05-11T11:00:14.115Z,96209.31
2023-05-11T11:02:42.999Z,96214.09
2023-05-11T11:05:13.993Z,96214.88
2023-05-11T11:08:03.704Z,96208.22
2023-05-11T11:10:46.737Z,96205.81
2023-05-11T11:13:15.426Z,96207.78
2023-05-11T11:15:54.720Z,96206.03
2023-05-11T11:18:35.512Z,96213.66
2023-05-11T11:21:04.234Z,96210.28
2023-05-11T11:23:42.880Z,96213.34
2023-05-11T11:26:13.109Z,96202.44
2023-05-11T11:28:57.265Z,96205.16
2023-05-11T11:31:27.933Z,96203.03
2023-05-11T11:34:01.221Z,96207.06
2023-05-11T11:36:56.044Z,96204.41
2023-05-11T11:39:45.115Z,96204.34
2023-05-11T11:42:17.950Z,96201.53
2023-05-11T11:44:46.095Z,96203.97
2023-05-11T11:47:15.717Z,96204.13
2023-05-11T11:49:48.297Z,96203.16
2023-05-11T11:52:33.893Z,96210.03
2023-05-11T11:55:03.860Z,96204.94
2023-05-11T11:57:33.172Z,96200.88
2023-05-11T12:00:01.554Z,96206.88
2023-05-11T12:02:28.903Z,96194.88
2023-05-11T12:05:02.121Z,96203.88
2023-05-11T12:07:34.190Z,96206.88
2023-05-11T12:10:04.546Z,96206.75
2023-05-11T12:12:31.645Z,96199.69
2023-05-11T12:14:59.927Z,96207.63
2023-05-11T12:17:29.926Z,96206.59
2023-05-11T12:20:13.604Z,96197.44
2023-05-11T12:22:40.985Z,96194.16
2023-05-11T12:25:11.282Z,96203.53
2023-05-11T12:27:55.218Z,96200.81
2023-05-11T12:30:28.429Z,96195.59
2023-05-11T12:32:57.546Z,96196.88
2023-05-11T12:35:31.219Z,96192.06
2023-05-11T12:38:02.206Z,96193.13
2023-05-11T12:40:30.554Z,96193.34
2023-05-11T12:42:59.721Z,96187.09
2023-05-11T12:45:28.121Z,96187.78
2023-05-11T12:47:56.745Z,96186.94
2023-05-11T12:50:23.886Z,96182.94
2023-05-11T12:52:50.944Z,96179.38
2023-05-11T12:55:30.722Z,96181.72
2023-05-11T12:58:18.568Z,96177.66
2023-05-11T13:00:57.951Z,96186.63
2023-05-11T13:03:30.609Z,96181.94
2023-05-11T13:06:11.009Z,96180.53
2023-05-11T13:08:46.451Z,96176.56
2023-05-11T13:11:27.358Z,96173.41
2023-05-11T13:13:56.161Z,96174.34
2023-05-11T13:16:33.774Z,96165.50
2023-05-11T13:19:06.256Z,96172.06
2023-05-11T13:21:33.553Z,96172.47
2023-05-11T13:24:02.082Z,96170.38
2023-05-11T13:26:32.764Z,96168.84
2023-05-11T13:29:10.305Z,96167.06
2023-05-11T13:31:53.125Z,96166.09
2023-05-11T13:34:20.659Z,96163.06
2023-05-11T13:36:47.881Z,96160.47
2023-05-11T13:39:15.006Z,96157.22
2023-05-11T13:41:41.909Z,96164.97
2023-05-11T13:44:08.854Z,96155.47
2023-05-11T13:46:35.933Z,96158.44
2023-05-11T13:49:03.757Z,96159.03
2023-05-11T13:51:31.748Z,96158.88
2023-05-11T13:54:00.783Z,96162.19
2023-05-11T13:56:27.632Z,96151.50
2023-05-11T13:58:54.606Z,96158.34
2023-05-11T14:01:22.015Z,96153.38
2023-05-11T14:03:53.365Z,96158.94
2023-05-11T14:06:23.573Z,96153.78
2023-05-11T14:08:51.561Z,96156.94
2023-05-11T14:11:18.447Z,96151.78
2023-05-11T14:13:45.295Z,96153.53
2023-05-11T14:16:13.284Z,96154.94
2023-05-11T14:18:42.062Z,96149.44
2023-05-11T14:21:08.941Z,96153.19
2023-05-11T14:23:37.630Z,96155.06
2023-05-11T14:26:06.518Z,96154.47
2023-05-11T14:28:33.920Z,96153.19
2023-05-11T14:31:01.331Z,96153.19
2023-05-11T14:33:28.252Z,96150.00
2023-05-11T14:35:55.098Z,96146.94
2023-05-11T14:38:23.026Z,96148.09
2023-05-11T14:40:51.715Z,96153.84
2023-05-11T14:43:19.269Z,96143.75
2023-05-11T14:45:46.173Z,96155.97
2023-05-11T14:48:13.268Z,96153.94
2023-05-11T14:50:42.803Z,96154.06
2023-05-11T14:53:10.004Z,96154.41
2023-05-11T14:55:37.869Z,96160.63
2023-05-11T14:58:09.129Z,96153.34
2023-05-11T15:00:40.359Z,96157.88
2023-05-11T15:03:08.132Z,96152.00
2023-05-11T15:05:35.320Z,96151.31
2023-05-11T15:08:02.133Z,96159.84
2023-05-11T15:10:28.996Z,96148.91
2023-05-11T15:12:55.922Z,96152.75
2023-05-11T15:15:22.869Z,96156.03
2023-05-11T15:17:49.665Z,96161.56
2023-05-11T15:20:19.547Z,96158.78
2023-05-11T15:22:46.496Z,96162.47
2023-05-11T15:25:13.364Z,96157.22
2023-05-11T15:27:40.423Z,96159.53
2023-05-11T15:30:08.026Z,96166.19
2023-05-11T15:32:35.475Z,96166.88
2023-05-11T15:35:02.434Z,96163.88
2023-05-11T15:37:29.244Z,96171.03
2023-05-11T15:39:56.264Z,96172.41
2023-05-11T15:42:23.126Z,96174.72
2023-05-11T15:44:52.071Z,96168.13
2023-05-11T15:47:19.053Z,96167.78
2023-05-11T15:49:45.888Z,96178.75
2023-05-11T15:52:12.812Z,96183.72
2023-05-11T15:54:39.608Z,96186.56
2023-05-11T15:57:06.623Z,96181.63
2023-05-11T15:59:33.497Z,96183.72
2023-05-11T16:02:00.385Z,96176.78
2023-05-11T16:04:27.291Z,96172.66
2023-05-11T16:06:54.655Z,96176.31
2023-05-11T16:09:22.609Z,96179.69
2023-05-11T16:11:49.457Z,96175.63
2023-05-11T16:14:16.414Z,96178.50
2023-05-11T16:16:43.804Z,96177.72
2023-05-11T16:19:10.771Z,96189.91
2023-05-11T16:21:38.499Z,96194.06
2023-05-11T16:24:05.836Z,96193.59
2023-05-11T16:26:32.734Z,96188.88
2023-05-11T16:29:01.651Z,96198.09
2023-05-11T16:31:28.857Z,96187.84
2023-05-11T16:33:55.706Z,96197.38
2023-05-11T16:36:22.834Z,96197.84
2023-05-11T16:38:49.747Z,96192.19
2023-05-11T16:41:16.788Z,96184.84
2023-05-11T16:43:46.093Z,96175.38
2023-05-11T16:46:12.973Z,96175.66
2023-05-11T16:48:40.152Z,96172.84
2023-05-11T16:51:06.988Z,96178.88
2023-05-11T16:53:35.183Z,96174.75
2023-05-11T16:56:02.407Z,96174.38
2023-05-11T16:58:30.873Z,96168.50
2023-05-11T17:01:01.539Z,96171.03
2023-05-11T17:03:28.496Z,96171.03
2023-05-11T17:05:56.099Z,96160.09
2023-05-11T17:08:22.987Z,96170.47
2023-05-11T17:10:50.013Z,96168.50
2023-05-11T17:13:17.251Z,96168.75
2023-05-11T17:15:44.123Z,96179.19
2023-05-11T17:18:10.984Z,96171.59
2023-05-11T17:20:38.047Z,96163.66
2023-05-11T17:23:04.866Z,96167.09
2023-05-11T17:25:32.859Z,96159.53
2023-05-11T17:27:59.635Z,96166.19
2023-05-11T17:30:36.288Z,96169.16
2023-05-11T17:33:13.474Z,96165.94
2023-05-11T17:35:40.533Z,96165.13
2023-05-11T17:38:07.617Z,96167.66
2023-05-11T17:40:34.878Z,96162.47
2023-05-11T17:43:02.323Z,96164.72
2023-05-11T17:45:29.230Z,96159.25
2023-05-11T17:47:56.185Z,96173.88
2023-05-11T17:50:23.554Z,96178.50
2023-05-11T17:52:51.345Z,96173.53
2023-05-11T17:55:18.653Z,96172.41
2023-05-11T17:57:45.690Z,96167.91
2023-05-11T18:00:13.590Z,96165.84
2023-05-11T18:02:40.616Z,96169.88
2023-05-11T18:05:07.990Z,96169.66
2023-05-11T18:07:34.880Z,96175.88
2023-05-11T18:10:02.634Z,96177.59
2023-05-11T18:12:30.366Z,96177.25
2023-05-11T18:14:59.782Z,96172.19
2023-05-11T18:17:27.133Z,96181.66
2023-05-11T18:19:54.019Z,96174.25
2023-05-11T18:22:22.492Z,96173.34
2023-05-11T18:24:49.679Z,96174.25
2023-05-11T18:27:16.568Z,96168.97
2023-05-11T18:29:43.428Z,96179.00
2023-05-11T18:32:10.440Z,96173.13
2023-05-11T18:34:41.124Z,96174.03
2023-05-11T18:37:09.432Z,96178.63
2023-05-11T18:39:36.252Z,96182.19
2023-05-11T18:42:04.917Z,96178.13
2023-05-11T18:44:32.815Z,96179.97
2023-05-11T18:47:00.229Z,96182.88
2023-05-11T18:49:27.144Z,96178.63
2023-05-11T18:51:54.070Z,96176.78
2023-05-11T18:54:21.014Z,96188.31
2023-05-11T18:56:47.823Z,96183.03
2023-05-11T18:59:14.644Z,96183.91
2023-05-11T19:01:48.017Z,96189.66
2023-05-11T19:04:17.689Z,96198.19
2023-05-11T19:06:44.497Z,96189.66
2023-05-11T19:09:11.345Z,96196.13
2023-05-11T19:11:38.252Z,96199.53
2023-05-11T19:14:05.166Z,96196.44
2023-05-11T19:16:35.631Z,96188.28
2023-05-11T19:19:02.835Z,96198.66
2023-05-11T19:21:29.781Z,96200.25
2023-05-11T19:23:56.650Z,96194.94
2023-05-11T19:26:23.643Z,96194.94
2023-05-11T19:28:50.426Z,96194.50
2023-05-11T19:31:19.472Z,96200.72
2023-05-11T19:33:46.512Z,96194.63
2023-05-11T19:36:13.405Z,96201.06
2023-05-11T19:38:40.296Z,96200.94
2023-05-11T19:41:07.149Z,96196.94
2023-05-11T19:43:35.186Z,96202.59
2023-05-11T19:46:05.168Z,96192.06
2023-05-11T19:48:32.178Z,96194.13
2023-05-11T19:50:59.063Z,96198.66
2023-05-11T19:53:27.178Z,96201.16
2023-05-11T19:55:54.507Z,96195.88
2023-05-11T19:58:22.224Z,96202.34
2023-05-11T20:00:49.826Z,96197.47
2023-05-11T20:03:17.096Z,96202.78
2023-05-11T20:05:44.281Z,96199.53
2023-05-11T20:08:11.122Z,96197.59
2023-05-11T20:10:38.768Z,96197.59
2023-05-11T20:13:06.229Z,96196.78
2023-05-11T20:15:34.009Z,96200.13
2023-05-11T20:18:03.092Z,96198.50
2023-05-11T20:20:31.290Z,96196.22
2023-05-11T20:22:59.056Z,96199.78
2023-05-11T20:25:25.903Z,96195.97
2023-05-11T20:27:52.976Z,96194.13
2023-05-11T20:30:20.474Z,96198.72
2023-05-11T20:35:18.257Z,96196.44
2023-05-11T20:37:45.313Z,96192.38
2023-05-11T20:40:12.926Z,96186.28
2023-05-11T20:42:39.743Z,96190.44
2023-05-11T20:45:07.689Z,96191.13
2023-05-11T20:47:34.643Z,96185.84
2023-05-11T20:50:01.576Z,96188.50
2023-05-11T20:52:28.575Z,96182.94
2023-05-11T20:54:55.552Z,96188.03
2023-05-11T20:57:22.478Z,96175.38
2023-05-11T21:02:19.144Z,96184.66
2023-05-11T21:04:46.814Z,96189.03
2023-05-11T21:07:13.694Z,96186.84
2023-05-11T21:09:40.652Z,96186.59
2023-05-11T21:12:07.941Z,96178.13
2023-05-11T21:14:34.787Z,96183.84
2023-05-11T21:17:01.662Z,96177.84
2023-05-11T21:19:28.527Z,96174.38
2023-05-11T21:21:55.412Z,96170.16
2023-05-11T21:24:23.120Z,96172.56
2023-05-11T21:26:49.945Z,96173.03
2023-05-11T21:29:16.807Z,96170.94
2023-05-11T21:31:43.675Z,96167.25
2023-05-11T21:34:10.796Z,96175.34
2023-05-11T21:36:39.092Z,96174.28
2023-05-11T21:39:06.016Z,96171.66
2023-05-11T21:41:32.825Z,96181.06
2023-05-11T21:44:00.165Z,96176.22
2023-05-11T21:46:27.081Z,96179.03
2023-05-11T21:48:53.905Z,96174.63
2023-05-11T21:51:20.822Z,96176.69
2023-05-11T21:53:47.666Z,96169.78
2023-05-11T21:56:14.541Z,96177.84
2023-05-11T21:58:41.556Z,96181.50
2023-05-11T22:01:08.614Z,96186.72
2023-05-11T22:03:35.600Z,96169.69
2023-05-11T22:06:02.501Z,96181.84
2023-05-11T22:08:29.293Z,96177.97
2023-05-11T22:10:56.115Z,96192.25
2023-05-11T22:13:22.915Z,96183.97
2023-05-11T22:15:49.866Z,96187.78
2023-05-11T22:18:16.823Z,96180.47
2023-05-11T22:20:43.637Z,96180.94
2023-05-11T22:23:10.555Z,96182.00
2023-05-11T22:25:37.399Z,96189.47
2023-05-11T22:28:04.850Z,96187.63
2023-05-11T22:30:31.677Z,96186.16
2023-05-11T22:32:58.591Z,96186.97
2023-05-11T22:35:25.655Z,96189.47
2023-05-11T22:37:52.552Z,96187.88
2023-05-11T22:40:19.576Z,96185.06
2023-05-11T22:42:46.614Z,96187.56
2023-05-11T22:45:13.512Z,96200.59
2023-05-11T22:47:40.361Z,96193.84
2023-05-11T22:50:11.673Z,96195.47
2023-05-11T22:52:39.023Z,96196.47
2023-05-11T22:55:06.791Z,96200.94
2023-05-11T22:57:33.693Z,96190.78
2023-05-11T23:00:00.553Z,96189.16
2023-05-11T23:02:29.602Z,96195.25
2023-05-11T23:04:56.543Z,96194.88
2023-05-11T23:07:23.395Z,96191.06
2023-05-11T23:09:52.612Z,96191.22
2023-05-11T23:12:19.696Z,96200.75
2023-05-11T23:14:46.618Z,96192.38
2023-05-11T23:17:13.827Z,96192.06
2023-05-11T23:19:40.852Z,96201.44
2023-05-11T23:22:08.123Z,96195.56
2023-05-11T23:24:35.002Z,96197.41
2023-05-11T23:27:03.391Z,96186.84
2023-05-11T23:29:30.316Z,96190.91
2023-05-11T23:31:57.178Z,96182.97
2023-05-11T23:34:24.038Z,96188.81
2023-05-11T23:36:50.884Z,96194.09
2023-05-11T23:39:17.662Z,96181.53
2023-05-11T23:41:44.643Z,96186.94
2023-05-11T23:44:11.714Z,96184.53
2023-05-11T23:46:38.589Z,96178.28
2023-05-11T23:49:05.392Z,96179.09
2023-05-11T23:51:32.411Z,96171.72
2023-05-11T23:53:59.640Z,96179.03
2023-05-11T23:56:26.540Z,96180.66
2023-05-11T23:58:53.470Z,96175.75
